Time;durP1;ratioP1;P1;durP2;ratioP2;P2;SDS_P1;SDS_P2;PMS_P1;PMS_P2;Temp;Humidity;BMP_temperature;BMP_pressure;BME280_temperature;BME280_humidity;BME280_pressure;Samples;Min_cycle;Max_cycle;Signal;HPM_P1;HPM_P2
2022/01/15 00:00:06;;;;;;;60.37;30.43;;;6.30;99.90;;;;;;5053475;28;20193;-66
2022/01/15 00:02:31;;;;;;;53.80;27.37;;;6.50;99.90;;;;;;5093231;28;20242;-66
2022/01/15 00:04:57;;;;;;;49.57;26.17;;;6.70;99.90;;;;;;5078349;28;20198;-66
2022/01/15 00:07:23;;;;;;;50.63;26.40;;;6.70;99.90;;;;;;5070514;28;20262;-66
2022/01/15 00:09:50;;;;;;;49.07;28.47;;;6.90;99.90;;;;;;5048127;28;20185;-66
2022/01/15 00:12:16;;;;;;;56.93;28.13;;;6.40;99.90;;;;;;5093004;28;20197;-67
2022/01/15 00:14:42;;;;;;;49.87;26.60;;;6.10;99.90;;;;;;5075598;28;20189;-67
2022/01/15 00:17:43;;;;;;;46.83;25.60;;;6.00;99.90;;;;;;5075199;28;20203;-66
2022/01/15 00:20:05;;;;;;;48.20;26.17;;;6.20;99.90;;;;;;5078928;28;20193;-66
2022/01/15 00:22:32;;;;;;;50.47;26.50;;;5.90;99.90;;;;;;5058760;28;20185;-66
2022/01/15 00:24:58;;;;;;;53.00;27.90;;;6.00;99.90;;;;;;5042288;28;20181;-66
2022/01/15 00:27:23;;;;;;;61.50;30.17;;;6.20;99.90;;;;;;5092447;28;20262;-66
2022/01/15 00:29:49;;;;;;;57.23;26.67;;;6.20;99.90;;;;;;5091698;28;20206;-66
2022/01/15 00:32:14;;;;;;;51.40;26.83;;;6.20;99.90;;;;;;5092072;28;20219;-66
2022/01/15 00:34:40;;;;;;;59.37;25.43;;;6.10;99.90;;;;;;5055236;28;20592;-67
2022/01/15 00:37:06;;;;;;;56.63;28.50;;;5.80;99.90;;;;;;5090219;28;20189;-67
2022/01/15 00:39:32;;;;;;;55.57;26.90;;;6.00;99.90;;;;;;5090268;28;20549;-66
2022/01/15 00:41:58;;;;;;;51.27;25.60;;;6.10;99.90;;;;;;5092368;28;20652;-67
2022/01/15 00:44:24;;;;;;;49.57;27.73;;;6.00;99.90;;;;;;5072811;28;20532;-67
2022/01/15 00:46:49;;;;;;;53.93;25.03;;;5.70;99.90;;;;;;5044845;28;20223;-66
2022/01/15 00:49:15;;;;;;;49.20;26.40;;;5.90;99.90;;;;;;5074440;28;20271;-66
2022/01/15 00:51:41;;;;;;;59.87;29.57;;;5.80;99.90;;;;;;5088008;28;20195;-66
2022/01/15 00:54:06;;;;;;;59.17;27.63;;;5.90;99.90;;;;;;5073451;28;20185;-66
2022/01/15 00:56:32;;;;;;;55.33;27.67;;;6.10;99.90;;;;;;5080018;28;20212;-66
2022/01/15 00:58:58;;;;;;;51.03;26.73;;;6.10;99.90;;;;;;5083560;28;20645;-67
2022/01/15 01:01:24;;;;;;;49.30;25.83;;;6.00;99.90;;;;;;5082613;28;20197;-66
2022/01/15 01:03:50;;;;;;;56.17;27.87;;;6.10;99.90;;;;;;5080790;28;20566;-66
2022/01/15 01:06:17;;;;;;;58.17;27.30;;;6.20;99.90;;;;;;5074609;28;20216;-68
2022/01/15 01:08:43;;;;;;;57.37;29.00;;;6.20;99.90;;;;;;5081568;28;20662;-66
2022/01/15 01:11:15;;;;;;;50.67;24.67;;;6.30;99.90;;;;;;5084368;28;20265;-66
2022/01/15 01:24:11;;;;;;;55.73;27.17;;;6.00;99.90;;;;;;5091954;28;20546;-67
2022/01/15 01:26:46;;;;;;;55.63;26.43;;;6.20;99.90;;;;;;5091742;28;20300;-66
2022/01/15 01:32:11;;;;;;;51.73;25.53;;;6.20;99.90;;;;;;5092647;28;20253;-66
2022/01/15 01:34:41;;;;;;;48.40;22.23;;;5.90;99.90;;;;;;5092751;28;20173;-66
2022/01/15 01:37:16;;;;;;;55.23;25.33;;;5.80;99.90;;;;;;5057592;28;20189;-66
2022/01/15 01:39:50;;;;;;;49.70;24.50;;;5.70;99.90;;;;;;5091779;28;20545;-66
2022/01/15 01:45:01;;;;;;;54.00;26.47;;;5.80;99.90;;;;;;5080479;28;20665;-66
2022/01/15 01:47:40;;;;;;;46.47;25.97;;;5.60;99.90;;;;;;5086436;28;20208;-66
2022/01/15 01:50:08;;;;;;;49.50;25.97;;;5.60;99.90;;;;;;5043444;28;20195;-66
2022/01/15 01:52:35;;;;;;;49.80;25.90;;;5.60;99.90;;;;;;5061347;28;20210;-66
2022/01/15 01:55:01;;;;;;;48.90;26.10;;;5.60;99.90;;;;;;5072486;28;20197;-66
2022/01/15 01:57:27;;;;;;;50.67;25.03;;;5.80;99.90;;;;;;5088449;28;20185;-66
2022/01/15 01:59:52;;;;;;;48.70;25.07;;;5.80;99.90;;;;;;5078429;28;20260;-66
2022/01/15 02:02:18;;;;;;;45.53;23.00;;;5.50;99.90;;;;;;5063220;28;20237;-66
2022/01/15 02:04:44;;;;;;;51.17;25.57;;;5.30;99.90;;;;;;5065232;28;20642;-66
2022/01/15 02:07:09;;;;;;;49.37;25.37;;;5.30;99.90;;;;;;5080604;28;20221;-66
2022/01/15 02:09:35;;;;;;;50.30;25.73;;;5.40;99.90;;;;;;5086002;28;20197;-67
2022/01/15 02:12:01;;;;;;;48.30;23.80;;;5.30;99.90;;;;;;5082497;28;20245;-66
2022/01/15 02:14:29;;;;;;;50.73;25.77;;;5.50;99.90;;;;;;5087390;28;20554;-67
2022/01/15 02:16:55;;;;;;;53.83;29.23;;;5.60;99.90;;;;;;5076299;28;20192;-66
2022/01/15 02:19:21;;;;;;;55.57;29.80;;;5.70;99.90;;;;;;5073268;28;20539;-66
2022/01/15 02:24:16;;;;;;;64.27;28.70;;;5.70;99.90;;;;;;5076386;28;20192;-67
2022/01/15 02:26:42;;;;;;;56.13;27.23;;;5.80;99.90;;;;;;5076305;28;20223;-69
2022/01/15 02:29:09;;;;;;;57.70;29.10;;;5.70;99.90;;;;;;5069622;28;20660;-66
2022/01/15 02:31:35;;;;;;;50.67;25.03;;;5.70;99.90;;;;;;5077329;28;20193;-66
2022/01/15 02:34:03;;;;;;;54.00;25.93;;;5.90;99.90;;;;;;5077404;28;20296;-66
2022/01/15 02:36:31;;;;;;;48.67;24.33;;;5.80;99.90;;;;;;5063051;28;20192;-67
2022/01/15 02:38:57;;;;;;;56.30;28.07;;;5.80;99.90;;;;;;5095904;28;20180;-66
2022/01/15 02:41:32;;;;;;;58.80;27.63;;;5.60;99.90;;;;;;5076748;28;20188;-66
2022/01/15 02:43:59;;;;;;;58.97;27.77;;;5.50;99.90;;;;;;5091180;28;20176;-66
2022/01/15 02:48:59;;;;;;;58.97;28.60;;;5.80;99.90;;;;;;5094775;28;20203;-66
2022/01/15 02:51:27;;;;;;;50.87;24.93;;;5.70;99.90;;;;;;5095072;28;20188;-66
2022/01/15 02:53:56;;;;;;;58.63;30.03;;;5.60;99.90;;;;;;5077845;28;20220;-66
2022/01/15 02:56:31;;;;;;;53.77;26.53;;;5.50;99.90;;;;;;5089190;28;20184;-66
2022/01/15 02:58:57;;;;;;;57.33;28.43;;;5.60;99.90;;;;;;5061775;28;20192;-69
2022/01/15 03:01:23;;;;;;;65.73;28.63;;;5.50;99.90;;;;;;5093846;28;20189;-66
2022/01/15 03:03:49;;;;;;;57.67;28.63;;;5.50;99.90;;;;;;5062780;28;20223;-66
2022/01/15 03:06:17;;;;;;;59.73;30.87;;;5.70;99.90;;;;;;5091110;28;20307;-68
2022/01/15 03:08:45;;;;;;;64.53;28.37;;;5.60;99.90;;;;;;5094121;28;20646;-66
2022/01/15 03:11:11;;;;;;;55.47;27.53;;;5.50;99.90;;;;;;5094024;28;20217;-71
2022/01/15 03:13:40;;;;;;;64.33;28.83;;;5.60;99.90;;;;;;5083516;28;20614;-66
2022/01/15 03:16:09;;;;;;;68.03;32.03;;;5.50;99.90;;;;;;5056315;28;20180;-67
2022/01/15 03:18:35;;;;;;;62.90;30.60;;;5.60;99.90;;;;;;5093615;28;20192;-67
2022/01/15 03:21:01;;;;;;;69.27;32.10;;;5.50;99.90;;;;;;5076220;28;20557;-66
2022/01/15 03:23:27;;;;;;;66.33;30.27;;;5.50;99.90;;;;;;5094111;28;20204;-67
2022/01/15 03:25:53;;;;;;;66.20;32.23;;;5.50;99.90;;;;;;5094320;28;20180;-67
2022/01/15 03:28:18;;;;;;;71.13;34.30;;;5.50;99.90;;;;;;5059656;28;20207;-66
2022/01/15 03:30:44;;;;;;;70.47;30.87;;;5.50;99.90;;;;;;5093962;28;20634;-66
2022/01/15 03:33:10;;;;;;;73.17;32.57;;;5.40;99.90;;;;;;5086956;28;20646;-66
2022/01/15 03:35:37;;;;;;;64.60;30.10;;;5.50;99.90;;;;;;5086696;28;20357;-66
2022/01/15 03:38:05;;;;;;;71.57;30.80;;;5.40;99.90;;;;;;5075943;28;20195;-66
2022/01/15 03:40:31;;;;;;;75.17;30.87;;;5.40;99.90;;;;;;5093855;28;20181;-66
2022/01/15 03:42:58;;;;;;;70.70;33.17;;;5.30;99.90;;;;;;5074957;28;20189;-66
2022/01/15 03:45:25;;;;;;;73.90;34.20;;;5.20;99.90;;;;;;5094854;28;20692;-66
2022/01/15 03:47:53;;;;;;;81.97;33.70;;;5.10;99.90;;;;;;5074606;28;20218;-66
2022/01/15 03:50:19;;;;;;;75.70;33.60;;;5.10;99.90;;;;;;5093946;28;20176;-67
2022/01/15 03:52:46;;;;;;;80.80;31.67;;;5.10;99.90;;;;;;5075470;28;20199;-66
2022/01/15 03:55:13;;;;;;;73.00;32.13;;;5.00;99.90;;;;;;5074812;28;20185;-66
2022/01/15 03:57:39;;;;;;;91.40;37.43;;;4.90;99.90;;;;;;5079167;28;20192;-66
2022/01/15 04:00:10;;;;;;;76.43;36.17;;;4.90;99.90;;;;;;5074687;28;20235;-66
2022/01/15 04:02:36;;;;;;;85.07;35.50;;;5.00;99.90;;;;;;5071915;28;20542;-66
2022/01/15 04:05:01;;;;;;;78.67;33.70;;;4.90;99.90;;;;;;5077015;28;20196;-66
2022/01/15 04:07:27;;;;;;;82.20;34.73;;;5.00;99.90;;;;;;5085248;28;20296;-66
2022/01/15 04:09:53;;;;;;;85.33;33.90;;;5.00;99.90;;;;;;5075649;28;20229;-67
2022/01/15 04:12:18;;;;;;;76.90;35.37;;;5.00;99.90;;;;;;5076894;28;20201;-66
2022/01/15 04:14:44;;;;;;;77.47;36.17;;;5.00;99.90;;;;;;5068659;28;20208;-65
2022/01/15 04:17:10;;;;;;;82.90;33.57;;;5.00;99.90;;;;;;5082653;28;20201;-66
2022/01/15 04:19:36;;;;;;;86.70;34.83;;;5.00;99.90;;;;;;5082285;28;20271;-66
2022/01/15 04:22:03;;;;;;;88.20;37.33;;;5.10;99.90;;;;;;5087859;28;20187;-66
2022/01/15 04:24:28;;;;;;;89.07;33.63;;;4.90;99.90;;;;;;5084148;28;20188;-68
2022/01/15 04:26:54;;;;;;;82.30;35.83;;;4.70;99.90;;;;;;5073952;28;20353;-66
2022/01/15 04:29:21;;;;;;;92.33;35.17;;;4.70;99.90;;;;;;5080381;28;20194;-66
2022/01/15 04:31:51;;;;;;;92.33;36.50;;;4.70;99.90;;;;;;5063844;28;20714;-66
2022/01/15 04:34:24;;;;;;;87.37;36.10;;;4.70;99.90;;;;;;5073436;28;20292;-67
2022/01/15 04:36:51;;;;;;;86.90;34.17;;;4.80;99.90;;;;;;5075171;28;20192;-67
2022/01/15 04:39:18;;;;;;;86.77;36.97;;;5.00;99.90;;;;;;5092610;28;20966;-67
2022/01/15 04:41:44;;;;;;;95.33;35.87;;;4.90;99.90;;;;;;5091988;28;20180;-66
2022/01/15 04:44:10;;;;;;;85.17;35.93;;;4.90;99.90;;;;;;5091220;28;20183;-66
2022/01/15 04:46:36;;;;;;;91.47;31.40;;;4.90;99.90;;;;;;5079742;28;20220;-66
2022/01/15 04:49:03;;;;;;;84.37;35.40;;;4.80;99.90;;;;;;5074972;28;20238;-66
2022/01/15 04:51:29;;;;;;;89.27;36.50;;;4.80;99.90;;;;;;5041676;28;20184;-67
2022/01/15 04:53:54;;;;;;;89.30;33.10;;;4.60;99.90;;;;;;5074411;28;20199;-66
2022/01/15 04:56:20;;;;;;;78.80;33.50;;;4.50;99.90;;;;;;5056365;28;20201;-66
2022/01/15 04:58:46;;;;;;;88.17;31.20;;;4.50;99.90;;;;;;5073910;28;20656;-66
2022/01/15 05:01:11;;;;;;;82.67;33.70;;;4.50;99.90;;;;;;5078672;28;20272;-66
2022/01/15 05:03:37;;;;;;;99.00;35.63;;;4.60;99.90;;;;;;5084847;28;20189;-67
2022/01/15 05:06:03;;;;;;;86.17;33.77;;;4.70;99.90;;;;;;5092662;28;20189;-66
2022/01/15 05:08:28;;;;;;;87.17;34.47;;;4.60;99.90;;;;;;5074725;28;20271;-66
2022/01/15 05:10:58;;;;;;;85.37;35.83;;;4.70;99.90;;;;;;5087180;28;20193;-66
2022/01/15 05:13:28;;;;;;;83.03;36.07;;;4.50;99.90;;;;;;5075663;28;20278;-66
2022/01/15 05:15:54;;;;;;;95.77;36.77;;;4.60;99.90;;;;;;5061769;28;20666;-66
2022/01/15 05:18:20;;;;;;;94.43;34.50;;;4.60;99.90;;;;;;5070417;28;20649;-67
2022/01/15 05:20:46;;;;;;;103.30;36.60;;;4.60;99.90;;;;;;5091090;28;20264;-66
2022/01/15 05:23:12;;;;;;;98.67;38.87;;;4.60;99.90;;;;;;5073140;28;20189;-66
2022/01/15 05:25:39;;;;;;;103.57;38.27;;;4.60;99.90;;;;;;5085857;28;20225;-66
2022/01/15 05:28:06;;;;;;;94.90;38.77;;;4.60;99.90;;;;;;5055256;28;20604;-66
2022/01/15 05:30:33;;;;;;;99.83;39.37;;;4.50;99.90;;;;;;5079600;28;20642;-67
2022/01/15 05:32:58;;;;;;;99.37;36.00;;;4.50;99.90;;;;;;5062866;28;20680;-72
2022/01/15 05:35:27;;;;;;;110.70;38.10;;;4.40;99.90;;;;;;5086691;28;20192;-66
2022/01/15 05:37:54;;;;;;;105.47;38.77;;;4.40;99.90;;;;;;5062870;28;20267;-67
2022/01/15 05:40:20;;;;;;;108.70;39.90;;;4.50;99.90;;;;;;5080600;28;20229;-66
2022/01/15 05:42:46;;;;;;;109.07;39.43;;;4.70;99.90;;;;;;5094942;28;20584;-66
2022/01/15 05:45:13;;;;;;;116.57;41.97;;;4.50;99.90;;;;;;5085325;28;20191;-66
2022/01/15 05:47:38;;;;;;;112.30;39.73;;;4.60;99.90;;;;;;5082917;28;20220;-66
2022/01/15 05:50:05;;;;;;;101.63;36.30;;;4.60;99.90;;;;;;5096225;28;20593;-66
2022/01/15 05:52:31;;;;;;;98.80;34.13;;;4.70;99.90;;;;;;5096298;28;20665;-66
2022/01/15 05:54:57;;;;;;;97.10;37.07;;;4.90;99.90;;;;;;5077710;28;20193;-66
2022/01/15 05:57:22;;;;;;;108.83;38.70;;;4.90;99.90;;;;;;5095830;28;20661;-66
2022/01/15 05:59:51;;;;;;;101.20;38.70;;;4.80;99.90;;;;;;5095707;28;20272;-66
2022/01/15 06:02:21;;;;;;;98.13;38.40;;;4.70;99.90;;;;;;5061841;28;20187;-66
2022/01/15 06:04:47;;;;;;;99.80;36.40;;;4.70;99.90;;;;;;5095670;28;20193;-66
2022/01/15 06:07:13;;;;;;;111.33;37.70;;;4.50;99.90;;;;;;5085025;28;20241;-66
2022/01/15 06:09:39;;;;;;;102.40;36.10;;;4.40;99.90;;;;;;5086553;28;20216;-65
2022/01/15 06:12:05;;;;;;;103.67;38.17;;;4.50;99.90;;;;;;5068252;28;20205;-66
2022/01/15 06:14:31;;;;;;;95.97;34.13;;;4.40;99.90;;;;;;5074922;28;20191;-66
2022/01/15 06:16:58;;;;;;;109.10;37.90;;;4.50;99.90;;;;;;5077304;28;20185;-66
2022/01/15 06:19:25;;;;;;;107.53;37.93;;;4.60;99.90;;;;;;5076348;28;20214;-66
2022/01/15 06:21:52;;;;;;;106.50;36.57;;;4.80;99.90;;;;;;5057977;28;20193;-66
2022/01/15 06:24:18;;;;;;;96.20;33.93;;;4.70;99.90;;;;;;5076272;28;20181;-66
2022/01/15 06:26:43;;;;;;;101.73;37.00;;;4.50;99.90;;;;;;5084655;28;20209;-67
2022/01/15 06:29:09;;;;;;;120.50;40.60;;;4.50;99.90;;;;;;5094158;28;20195;-66
2022/01/15 06:31:35;;;;;;;102.73;37.70;;;4.50;99.90;;;;;;5076884;28;20192;-67
2022/01/15 06:34:01;;;;;;;106.40;40.23;;;4.70;99.90;;;;;;5044278;28;20185;-66
2022/01/15 06:36:27;;;;;;;99.43;33.20;;;4.60;99.90;;;;;;5088845;28;20185;-66
2022/01/15 06:38:53;;;;;;;122.60;41.53;;;4.60;99.90;;;;;;5093973;28;20181;-66
2022/01/15 06:41:19;;;;;;;108.20;37.73;;;4.60;99.90;;;;;;5092851;28;20286;-67
2022/01/15 06:43:45;;;;;;;114.17;40.97;;;4.60;99.90;;;;;;5075823;28;20702;-67
2022/01/15 06:46:11;;;;;;;112.20;37.33;;;4.70;99.90;;;;;;5087997;28;20256;-66
2022/01/15 06:48:36;;;;;;;98.57;34.67;;;4.70;99.90;;;;;;5044336;28;20216;-66
2022/01/15 06:51:03;;;;;;;104.93;36.00;;;4.80;99.90;;;;;;5082552;28;20649;-66
2022/01/15 06:53:29;;;;;;;76.03;28.93;;;4.50;99.90;;;;;;5074674;28;20595;-66
2022/01/15 06:55:55;;;;;;;106.47;36.27;;;4.30;99.90;;;;;;5081960;28;20196;-66
2022/01/15 06:58:22;;;;;;;105.90;37.20;;;4.30;99.90;;;;;;5065300;28;20268;-67
2022/01/15 07:00:49;;;;;;;107.77;36.40;;;4.40;99.90;;;;;;5093047;28;20646;-67
2022/01/15 07:03:15;;;;;;;106.00;34.77;;;4.30;99.90;;;;;;5060364;28;20177;-66
2022/01/15 07:05:41;;;;;;;113.53;35.53;;;4.40;99.90;;;;;;5094712;28;20590;-67
2022/01/15 07:08:07;;;;;;;104.73;35.43;;;4.40;99.90;;;;;;5076436;28;20246;-67
2022/01/15 07:10:34;;;;;;;107.77;37.20;;;4.30;99.90;;;;;;5094130;28;20189;-67
2022/01/15 07:12:59;;;;;;;113.97;37.47;;;4.20;99.90;;;;;;5093861;28;20234;-65
2022/01/15 07:15:25;;;;;;;106.57;36.30;;;4.30;99.90;;;;;;5073951;28;20185;-65
2022/01/15 07:17:51;;;;;;;92.33;31.97;;;4.30;99.90;;;;;;5060053;28;20189;-65
2022/01/15 07:20:19;;;;;;;83.27;30.33;;;4.20;99.90;;;;;;5091934;28;20578;-66
2022/01/15 07:22:45;;;;;;;87.23;31.30;;;3.70;99.90;;;;;;5089763;28;20534;-65
2022/01/15 07:25:12;;;;;;;78.00;29.70;;;3.70;99.90;;;;;;5079667;28;20173;-67
2022/01/15 07:27:38;;;;;;;79.37;29.47;;;3.80;99.90;;;;;;5093913;28;20729;-66
2022/01/15 07:30:08;;;;;;;85.97;28.07;;;4.00;99.90;;;;;;5090261;28;20220;-65
2022/01/15 07:32:34;;;;;;;72.67;27.23;;;4.00;99.90;;;;;;5079948;28;20188;-65
2022/01/15 07:35:00;;;;;;;77.13;27.53;;;4.00;99.90;;;;;;5093940;28;20185;-65
2022/01/15 07:37:26;;;;;;;67.97;26.73;;;3.90;99.90;;;;;;5083903;28;20223;-69
2022/01/15 07:39:53;;;;;;;72.77;26.33;;;3.90;99.90;;;;;;5094098;28;20195;-65
2022/01/15 07:42:19;;;;;;;69.23;25.40;;;3.90;99.90;;;;;;5090637;28;20188;-65
2022/01/15 07:44:48;;;;;;;70.77;24.90;;;4.00;99.90;;;;;;5079308;28;20208;-65
2022/01/15 07:47:13;;;;;;;73.03;29.80;;;4.00;99.90;;;;;;5093588;28;20265;-65
2022/01/15 07:49:40;;;;;;;77.53;31.97;;;4.10;99.90;;;;;;5093707;28;20654;-64
2022/01/15 07:52:06;;;;;;;66.00;27.17;;;4.10;99.90;;;;;;5093911;28;20184;-65
2022/01/15 07:54:31;;;;;;;65.10;27.30;;;4.20;99.90;;;;;;5072518;28;20181;-65
2022/01/15 07:56:58;;;;;;;65.07;27.10;;;4.30;99.90;;;;;;5056592;28;20193;-65
2022/01/15 07:59:28;;;;;;;75.47;27.20;;;4.30;99.90;;;;;;5082505;28;20236;-67
2022/01/15 08:01:54;;;;;;;72.80;27.13;;;4.40;99.90;;;;;;5063605;28;20197;-68
2022/01/15 08:04:20;;;;;;;70.50;27.73;;;4.40;99.90;;;;;;5070806;28;20192;-67
2022/01/15 08:06:45;;;;;;;73.60;24.50;;;4.50;99.90;;;;;;5087188;28;20221;-67
2022/01/15 08:09:11;;;;;;;73.90;25.33;;;4.40;99.90;;;;;;5074885;28;20261;-67
2022/01/15 08:11:37;;;;;;;64.73;24.47;;;4.50;99.90;;;;;;5093148;28;20208;-65
2022/01/15 08:14:03;;;;;;;78.10;28.07;;;4.40;99.90;;;;;;5076545;28;20552;-67
2022/01/15 08:16:29;;;;;;;60.57;25.50;;;4.60;99.90;;;;;;5092459;28;20268;-67
2022/01/15 08:18:55;;;;;;;60.43;25.73;;;4.60;99.90;;;;;;5074090;28;20733;-67
2022/01/15 08:21:21;;;;;;;71.10;25.73;;;4.60;99.90;;;;;;5083767;28;20193;-67
2022/01/15 08:23:46;;;;;;;67.63;26.27;;;4.40;99.90;;;;;;5093008;28;20180;-64
2022/01/15 08:26:12;;;;;;;74.43;25.80;;;4.60;99.90;;;;;;5092904;28;20180;-64
2022/01/15 08:28:38;;;;;;;64.73;26.17;;;4.60;99.90;;;;;;5075042;28;20181;-69
2022/01/15 08:31:07;;;;;;;61.93;25.40;;;4.50;99.90;;;;;;5074606;28;20186;-72
2022/01/15 08:33:33;;;;;;;78.80;26.90;;;4.30;99.90;;;;;;5092834;28;20180;-67
2022/01/15 08:35:59;;;;;;;79.67;24.67;;;4.40;99.90;;;;;;5092918;28;20255;-66
2022/01/15 08:38:25;;;;;;;77.47;24.70;;;4.50;99.90;;;;;;5075598;28;20267;-66
2022/01/15 08:40:51;;;;;;;58.67;25.53;;;4.50;99.90;;;;;;5092174;28;20259;-66
2022/01/15 08:43:17;;;;;;;62.00;22.50;;;4.60;99.90;;;;;;5073116;28;20173;-66
2022/01/15 08:45:43;;;;;;;58.20;24.03;;;4.50;99.90;;;;;;5073572;28;20537;-66
2022/01/15 08:48:09;;;;;;;61.10;23.20;;;4.50;99.90;;;;;;5073182;28;20666;-66
2022/01/15 08:50:36;;;;;;;60.73;24.07;;;4.30;99.90;;;;;;5074690;28;20192;-66
2022/01/15 08:53:06;;;;;;;61.67;24.87;;;4.10;99.90;;;;;;5092644;28;20176;-67
2022/01/15 08:55:33;;;;;;;57.60;22.27;;;3.90;99.90;;;;;;5089576;28;20264;-66
2022/01/15 08:57:59;;;;;;;56.23;24.47;;;4.10;99.90;;;;;;5092429;28;20259;-66
2022/01/15 09:00:27;;;;;;;71.63;26.50;;;4.30;99.90;;;;;;5070388;28;20185;-66
2022/01/15 09:02:54;;;;;;;64.00;24.73;;;4.30;99.90;;;;;;5077141;28;20263;-66
2022/01/15 09:05:20;;;;;;;62.60;24.73;;;4.30;99.90;;;;;;5074448;28;20281;-70
2022/01/15 09:07:46;;;;;;;52.83;23.60;;;4.40;99.90;;;;;;5063793;28;20297;-66
2022/01/15 09:10:12;;;;;;;57.03;24.37;;;4.20;99.90;;;;;;5073187;28;20193;-66
2022/01/15 09:12:38;;;;;;;55.93;21.33;;;4.10;99.90;;;;;;5070464;28;20231;-66
2022/01/15 09:15:05;;;;;;;46.00;21.57;;;4.30;99.90;;;;;;5055084;28;20268;-66
2022/01/15 09:17:31;;;;;;;53.23;23.50;;;4.30;99.90;;;;;;5062321;28;20189;-66
2022/01/15 09:19:56;;;;;;;50.57;21.40;;;4.10;99.90;;;;;;5081747;28;20192;-66
2022/01/15 09:22:22;;;;;;;51.93;23.17;;;4.20;99.90;;;;;;5092102;28;20267;-65
2022/01/15 09:24:48;;;;;;;59.63;23.97;;;3.80;99.90;;;;;;5092915;28;20179;-69
2022/01/15 09:30:17;;;;;;;62.40;20.37;;;4.00;99.90;;;;;;5090704;28;20227;-66
2022/01/15 09:32:46;;;;;;;49.30;21.30;;;3.80;99.90;;;;;;5076130;28;20161;-66
2022/01/15 09:35:13;;;;;;;54.73;22.17;;;3.80;99.90;;;;;;5061105;28;20222;-66
2022/01/15 09:37:40;;;;;;;63.23;23.27;;;3.90;99.90;;;;;;5092033;28;20188;-66
2022/01/15 09:40:07;;;;;;;44.53;20.43;;;4.00;99.90;;;;;;5073329;28;20200;-67
2022/01/15 09:42:34;;;;;;;45.90;20.30;;;4.10;99.90;;;;;;5056630;28;20181;-66
2022/01/15 09:45:02;;;;;;;59.60;21.50;;;4.20;99.90;;;;;;5074485;28;20177;-66
2022/01/15 09:47:29;;;;;;;43.00;19.23;;;4.20;99.90;;;;;;5092245;28;20196;-65
2022/01/15 09:49:56;;;;;;;48.40;19.60;;;4.10;99.90;;;;;;5073858;28;20201;-66
2022/01/15 09:52:22;;;;;;;56.90;21.80;;;3.70;99.90;;;;;;5073913;28;20188;-66
2022/01/15 09:54:50;;;;;;;53.00;19.77;;;3.90;99.90;;;;;;5077706;28;20181;-66
2022/01/15 09:57:17;;;;;;;42.00;19.00;;;4.20;99.90;;;;;;5038201;28;20183;-66
2022/01/15 09:59:43;;;;;;;40.97;16.13;;;4.20;99.90;;;;;;5081991;28;20185;-66
2022/01/15 10:02:09;;;;;;;50.90;19.93;;;4.10;99.90;;;;;;5074273;28;20226;-66
2022/01/15 10:04:35;;;;;;;47.10;19.27;;;4.30;99.90;;;;;;5091618;28;20177;-66
2022/01/15 10:07:10;;;;;;;45.20;20.27;;;4.60;99.90;;;;;;5057106;28;20228;-66
2022/01/15 10:09:37;;;;;;;57.10;23.60;;;4.70;99.90;;;;;;5080529;28;20259;-66
2022/01/15 10:12:03;;;;;;;42.80;19.73;;;4.80;99.90;;;;;;5092011;28;20188;-66
2022/01/15 10:14:37;;;;;;;48.03;22.33;;;4.70;99.90;;;;;;5073502;28;20272;-66
2022/01/15 10:17:22;;;;;;;54.60;24.03;;;4.80;99.90;;;;;;5081731;28;20193;-66
2022/01/15 10:19:49;;;;;;;49.00;20.40;;;4.90;99.90;;;;;;5063977;28;20630;-66
2022/01/15 10:22:26;;;;;;;45.73;19.77;;;4.90;99.90;;;;;;5075247;28;20540;-66
2022/01/15 10:24:56;;;;;;;41.07;18.50;;;5.00;99.90;;;;;;5070730;28;20184;-66
2022/01/15 10:27:30;;;;;;;36.37;19.27;;;5.20;99.90;;;;;;5074112;28;20201;-67
2022/01/15 10:30:21;;;;;;;39.47;22.57;;;5.40;99.90;;;;;;5075053;28;20234;-67
2022/01/15 10:33:03;;;;;;;40.87;20.60;;;5.50;99.90;;;;;;5087797;28;20204;-66
2022/01/15 10:35:35;;;;;;;44.73;22.40;;;5.40;99.90;;;;;;5078357;28;20173;-66
2022/01/15 10:38:07;;;;;;;38.97;21.37;;;5.30;99.90;;;;;;5095433;28;20185;-66
2022/01/15 10:40:46;;;;;;;43.20;19.87;;;5.20;99.90;;;;;;5095330;28;20267;-66
2022/01/15 10:43:16;;;;;;;40.03;19.37;;;4.90;99.90;;;;;;5082979;28;20177;-66
2022/01/15 10:45:56;;;;;;;41.30;19.00;;;4.90;99.90;;;;;;5077771;28;20187;-66
2022/01/15 10:48:33;;;;;;;40.17;20.50;;;5.00;99.90;;;;;;5076646;28;20345;-73
2022/01/15 10:51:01;;;;;;;39.27;21.23;;;4.90;99.90;;;;;;5064449;28;20184;-66
2022/01/15 10:53:44;;;;;;;44.07;21.83;;;4.70;99.90;;;;;;5076443;28;20177;-66
2022/01/15 10:56:14;;;;;;;47.17;19.97;;;4.70;99.90;;;;;;5066791;28;20638;-66
2022/01/15 10:58:42;;;;;;;38.47;19.87;;;4.60;99.90;;;;;;5089923;28;20187;-66
2022/01/15 11:01:12;;;;;;;44.70;19.03;;;4.50;99.90;;;;;;5060804;28;20181;-66
2022/01/15 11:03:41;;;;;;;46.60;21.10;;;4.50;99.90;;;;;;5075633;28;20264;-66
2022/01/15 11:06:07;;;;;;;40.60;20.87;;;4.50;99.90;;;;;;5092747;28;20177;-66
2022/01/15 11:08:38;;;;;;;40.50;20.43;;;4.40;99.90;;;;;;5076520;28;20227;-66
2022/01/15 11:11:05;;;;;;;37.37;21.30;;;4.20;99.90;;;;;;5076608;28;20228;-66
2022/01/15 11:13:33;;;;;;;45.40;21.03;;;4.20;99.90;;;;;;5094317;28;20622;-66
2022/01/15 11:16:05;;;;;;;37.90;20.30;;;4.40;99.90;;;;;;5093608;28;20180;-66
2022/01/15 11:18:37;;;;;;;42.67;20.60;;;4.30;99.90;;;;;;5076337;28;20196;-66
2022/01/15 11:21:05;;;;;;;48.10;22.63;;;4.20;99.90;;;;;;5090559;28;20180;-66
2022/01/15 11:23:32;;;;;;;45.87;22.23;;;4.30;99.90;;;;;;5074637;28;20220;-66
2022/01/15 11:26:01;;;;;;;41.73;20.70;;;4.30;99.90;;;;;;5074755;28;20182;-66
2022/01/15 11:28:38;;;;;;;40.43;21.23;;;4.30;99.90;;;;;;5056527;28;20636;-66
2022/01/15 11:31:13;;;;;;;33.40;19.30;;;4.30;99.90;;;;;;5074910;28;20185;-66
2022/01/15 11:33:45;;;;;;;33.67;17.57;;;4.60;99.90;;;;;;5071344;28;20173;-66
2022/01/15 11:36:30;;;;;;;36.47;19.70;;;5.00;99.90;;;;;;5075660;28;20173;-66
2022/01/15 11:38:57;;;;;;;38.20;19.97;;;5.20;99.90;;;;;;5075262;28;20204;-66
2022/01/15 11:41:23;;;;;;;38.17;18.50;;;5.10;99.90;;;;;;5071848;28;20205;-67
2022/01/15 11:43:50;;;;;;;37.80;18.90;;;5.20;99.90;;;;;;5093200;28;20595;-66
2022/01/15 11:46:32;;;;;;;39.27;20.83;;;5.40;99.90;;;;;;5074108;28;20189;-66
2022/01/15 11:49:30;;;;;;;35.20;18.93;;;5.50;99.90;;;;;;5081851;28;20185;-67
2022/01/15 11:52:18;;;;;;;42.07;19.00;;;5.60;99.90;;;;;;5093260;28;20184;-66
2022/01/15 11:54:58;;;;;;;37.43;18.33;;;5.60;99.90;;;;;;5066574;28;20200;-66
2022/01/15 11:57:35;;;;;;;35.27;17.30;;;5.80;99.90;;;;;;5093375;28;20265;-66
2022/01/15 12:00:15;;;;;;;42.23;21.47;;;6.00;99.90;;;;;;5093519;28;20172;-66
2022/01/15 12:02:42;;;;;;;45.50;19.67;;;5.80;99.90;;;;;;5092509;28;20291;-66
2022/01/15 12:05:19;;;;;;;35.00;18.37;;;5.80;99.90;;;;;;5067945;28;20188;-66
2022/01/15 12:07:47;;;;;;;33.90;20.27;;;5.80;99.90;;;;;;5063550;28;20726;-67
2022/01/15 12:10:15;;;;;;;34.83;20.10;;;5.50;99.90;;;;;;5087218;28;20228;-66
2022/01/15 12:12:50;;;;;;;33.07;19.33;;;5.60;99.90;;;;;;5056470;28;20296;-66
2022/01/15 12:15:24;;;;;;;34.83;19.60;;;5.80;99.90;;;;;;5081640;28;20176;-67
2022/01/15 12:17:51;;;;;;;37.60;22.70;;;5.90;99.90;;;;;;5093159;28;20189;-67
2022/01/15 12:20:17;;;;;;;33.03;18.40;;;5.90;99.90;;;;;;5083035;28;20173;-67
2022/01/15 12:22:51;;;;;;;38.60;19.97;;;6.00;99.90;;;;;;5086992;28;20600;-67
2022/01/15 12:25:16;;;;;;;35.60;19.00;;;6.30;99.90;;;;;;5073685;28;20259;-67
2022/01/15 12:27:55;;;;;;;35.00;20.97;;;6.40;99.90;;;;;;5073456;28;20570;-67
2022/01/15 12:30:30;;;;;;;39.27;19.33;;;6.30;99.90;;;;;;5077385;28;20185;-69
2022/01/15 12:33:00;;;;;;;39.07;20.33;;;5.70;99.90;;;;;;5068157;28;20177;-67
2022/01/15 12:35:28;;;;;;;36.57;21.07;;;5.40;99.90;;;;;;5077447;28;20183;-67
2022/01/15 12:38:02;;;;;;;34.80;18.80;;;5.50;99.90;;;;;;5092873;28;20653;-67
2022/01/15 12:40:48;;;;;;;32.60;18.97;;;5.90;99.90;;;;;;5089865;28;20272;-67
2022/01/15 12:43:26;;;;;;;32.53;19.13;;;6.20;99.90;;;;;;5084013;28;20187;-67
2022/01/15 12:46:00;;;;;;;36.30;18.47;;;6.20;99.90;;;;;;5092904;28;20198;-68
2022/01/15 12:48:29;;;;;;;28.53;18.80;;;6.30;99.90;;;;;;5092451;28;20559;-67
2022/01/15 12:51:01;;;;;;;33.70;18.50;;;6.30;99.90;;;;;;5091844;28;20298;-67
2022/01/15 12:53:29;;;;;;;36.07;19.70;;;6.40;99.90;;;;;;5079189;28;20181;-66
2022/01/15 12:55:55;;;;;;;28.77;17.53;;;6.30;99.90;;;;;;5063839;28;20254;-66
2022/01/15 12:58:24;;;;;;;35.43;19.33;;;6.40;99.90;;;;;;5084735;28;20650;-66
2022/01/15 13:00:50;;;;;;;34.93;20.43;;;6.50;99.90;;;;;;5092543;28;20173;-67
2022/01/15 13:03:23;;;;;;;33.67;19.53;;;6.50;99.90;;;;;;5076712;28;20185;-67